Time;durP1;ratioP1;P1;durP2;ratioP2;P2;SDS_P1;SDS_P2;PMS_P1;PMS_P2;Temp;Humidity;BMP_temperature;BMP_pressure;BME280_temperature;BME280_humidity;BME280_pressure;Samples;Min_cycle;Max_cycle;Signal;HPM_P1;HPM_P2
2021/03/09 00:01:36;;;;;;;41.95;22.52;;;;;;;25.15;17.75;98862.56;5064455;28;20017;-50
2021/03/09 00:04:01;;;;;;;36.83;21.77;;;;;;;25.14;17.70;98869.38;5064093;28;20058;-51
2021/03/09 00:06:27;;;;;;;35.60;20.38;;;;;;;25.13;17.82;98865.75;5080784;28;20032;-51
2021/03/09 00:08:52;;;;;;;37.80;20.20;;;;;;;25.16;17.72;98869.78;5083025;28;20051;-48
2021/03/09 00:11:17;;;;;;;35.38;19.67;;;;;;;25.15;17.88;98871.78;5068620;28;20051;-52
2021/03/09 00:13:43;;;;;;;36.03;19.27;;;;;;;25.17;18.07;98871.41;5087764;28;20370;-49
2021/03/09 00:16:08;;;;;;;33.20;19.23;;;;;;;25.16;17.92;98864.97;5086654;28;20031;-49
2021/03/09 00:18:33;;;;;;;34.55;19.35;;;;;;;25.16;17.75;98870.59;5081499;28;20093;-47
2021/03/09 00:20:59;;;;;;;32.95;19.10;;;;;;;25.16;18.06;98861.38;5084050;28;20017;-48
2021/03/09 00:23:24;;;;;;;33.88;19.15;;;;;;;25.14;17.71;98861.75;5080981;28;20073;-49
2021/03/09 00:25:50;;;;;;;34.05;18.35;;;;;;;25.14;17.91;98863.75;5083759;28;20495;-50
2021/03/09 00:28:22;;;;;;;32.67;17.83;;;;;;;25.11;18.03;98870.94;5086123;28;20026;-48
2021/03/09 00:30:48;;;;;;;31.17;18.13;;;;;;;25.10;17.81;98866.50;5090484;28;20023;-49
2021/03/09 00:33:13;;;;;;;29.90;17.45;;;;;;;25.08;18.02;98871.69;5093179;28;20028;-50
2021/03/09 00:35:38;;;;;;;29.63;16.60;;;;;;;25.06;18.03;98874.91;5081465;28;20103;-49
2021/03/09 00:38:04;;;;;;;31.02;17.38;;;;;;;25.05;17.67;98862.06;5085232;28;20098;-50
2021/03/09 00:40:30;;;;;;;29.33;17.15;;;;;;;25.04;17.84;98871.66;5090559;28;20016;-50
2021/03/09 00:42:55;;;;;;;30.88;17.35;;;;;;;25.05;17.83;98869.69;5082604;28;20016;-51
2021/03/09 00:45:21;;;;;;;27.85;16.33;;;;;;;25.05;17.87;98864.06;5084544;28;20513;-51
2021/03/09 00:47:47;;;;;;;31.33;16.55;;;;;;;25.05;17.79;98861.28;5086110;28;20345;-52
2021/03/09 00:50:12;;;;;;;27.98;16.15;;;;;;;25.06;18.05;98865.69;5088091;28;20730;-47
2021/03/09 00:52:38;;;;;;;28.55;16.58;;;;;;;25.08;17.95;98866.09;5080234;28;20112;-51
2021/03/09 00:55:04;;;;;;;27.55;16.17;;;;;;;25.08;17.74;98861.28;5080339;28;20719;-50
2021/03/09 00:57:29;;;;;;;28.98;16.05;;;;;;;25.10;17.78;98861.72;5084367;28;20477;-52
2021/03/09 00:59:54;;;;;;;29.98;16.00;;;;;;;25.11;17.79;98854.91;5081674;28;21402;-51
2021/03/09 01:02:20;;;;;;;25.85;15.20;;;;;;;25.11;17.75;98857.72;5082289;28;20044;-53
2021/03/09 01:04:45;;;;;;;29.27;16.40;;;;;;;25.13;17.73;98857.31;5071393;28;20068;-47
2021/03/09 01:07:11;;;;;;;26.80;15.98;;;;;;;25.14;17.71;98852.53;5086857;28;20764;-47
2021/03/09 01:09:36;;;;;;;27.25;15.75;;;;;;;25.13;17.96;98848.91;5089711;28;20016;-51
2021/03/09 01:12:02;;;;;;;26.45;15.88;;;;;;;25.14;18.02;98852.53;5083792;28;20453;-49
2021/03/09 01:14:27;;;;;;;23.95;14.63;;;;;;;25.11;17.96;98843.69;5084725;28;20073;-50
2021/03/09 01:16:54;;;;;;;24.90;14.52;;;;;;;25.11;17.76;98845.69;5090117;28;20028;-51
2021/03/09 01:19:20;;;;;;;26.60;15.05;;;;;;;25.10;17.82;98844.06;5080737;28;20020;-52
2021/03/09 01:21:45;;;;;;;25.20;14.93;;;;;;;25.09;17.93;98842.44;5084832;28;20073;-49
2021/03/09 01:24:11;;;;;;;25.15;14.80;;;;;;;25.06;17.88;98838.41;5090732;28;20024;-48
2021/03/09 01:26:36;;;;;;;25.88;14.43;;;;;;;25.05;17.72;98830.41;5091259;28;20425;-49
2021/03/09 01:29:02;;;;;;;27.27;14.88;;;;;;;25.03;17.77;98827.19;5087003;28;20032;-51
2021/03/09 01:31:27;;;;;;;25.25;15.35;;;;;;;25.03;17.99;98832.78;5083857;28;20384;-48
2021/03/09 01:33:53;;;;;;;26.17;14.68;;;;;;;25.03;18.00;98829.97;5087415;28;20022;-49
2021/03/09 01:36:18;;;;;;;23.27;13.77;;;;;;;25.02;17.77;98834.78;5086326;28;20035;-49
2021/03/09 01:38:43;;;;;;;25.80;14.63;;;;;;;25.03;17.95;98832.78;5086556;28;20043;-51
2021/03/09 01:41:09;;;;;;;24.60;14.05;;;;;;;25.03;17.98;98832.78;5089710;28;20054;-51
2021/03/09 01:43:34;;;;;;;27.48;15.45;;;;;;;25.02;17.72;98820.75;5094142;28;20103;-50
2021/03/09 01:46:00;;;;;;;24.30;14.25;;;;;;;25.04;17.84;98823.19;5092582;28;20032;-48
2021/03/09 01:48:35;;;;;;;26.60;14.52;;;;;;;25.03;17.79;98824.38;5083312;28;20078;-51
2021/03/09 01:51:00;;;;;;;23.10;13.80;;;;;;;25.04;18.03;98820.38;5086614;28;20510;-52
2021/03/09 01:53:26;;;;;;;22.10;13.35;;;;;;;25.05;17.80;98819.19;5090178;28;20016;-53
2021/03/09 01:55:52;;;;;;;24.33;14.48;;;;;;;25.05;17.94;98819.97;5085061;28;20031;-51
2021/03/09 01:58:20;;;;;;;22.98;13.80;;;;;;;25.06;17.79;98820.78;5088844;28;20021;-52
2021/03/09 02:00:46;;;;;;;23.33;13.48;;;;;;;25.08;17.83;98824.81;5089159;28;20027;-49
2021/03/09 02:03:12;;;;;;;24.33;14.43;;;;;;;25.08;17.59;98819.19;5089271;28;20028;-52
2021/03/09 02:05:37;;;;;;;24.48;13.50;;;;;;;25.08;17.93;98816.41;5090152;28;20024;-51
2021/03/09 02:08:03;;;;;;;23.30;13.75;;;;;;;25.09;17.79;98820.81;5082318;28;20533;-49
2021/03/09 02:10:29;;;;;;;23.25;13.20;;;;;;;25.10;17.93;98824.41;5085607;28;20067;-49
2021/03/09 02:13:01;;;;;;;21.33;13.52;;;;;;;25.10;17.98;98821.63;5084959;28;20089;-51
2021/03/09 02:15:36;;;;;;;21.05;12.25;;;;;;;25.10;17.91;98807.59;5083840;28;20073;-51
2021/03/09 02:18:20;;;;;;;22.85;13.27;;;;;;;25.11;18.03;98814.81;5088480;28;20029;-49
2021/03/09 02:21:10;;;;;;;22.52;13.07;;;;;;;25.11;17.73;98807.22;5091110;28;20519;-49
2021/03/09 02:24:07;;;;;;;19.85;12.60;;;;;;;25.11;17.93;98809.19;5087643;28;20798;-49
2021/03/09 02:26:58;;;;;;;22.33;13.02;;;;;;;25.14;17.89;98821.66;5085933;28;20020;-51
2021/03/09 02:29:41;;;;;;;23.38;12.98;;;;;;;25.12;17.78;98806.00;5084340;28;20056;-50
2021/03/09 02:32:15;;;;;;;21.08;12.52;;;;;;;25.12;18.07;98803.22;5084596;28;20031;-51
2021/03/09 02:34:45;;;;;;;20.48;12.50;;;;;;;25.11;17.68;98809.19;5090720;28;20023;-48
2021/03/09 02:37:13;;;;;;;21.17;12.38;;;;;;;25.11;17.65;98803.59;5090612;28;20421;-47
2021/03/09 02:39:42;;;;;;;21.83;13.30;;;;;;;25.09;17.99;98803.16;5089751;28;20354;-49
2021/03/09 02:42:08;;;;;;;;;;;;;;;25.07;17.92;98806.38;5084403;28;20028;-51
2021/03/09 02:44:37;;;;;;;22.85;13.10;;;;;;;25.04;17.83;98809.94;5084084;28;20294;-50
2021/03/09 02:47:04;;;;;;;22.58;12.90;;;;;;;25.02;17.75;98809.53;5081606;28;20049;-49
2021/03/09 02:49:33;;;;;;;21.15;12.27;;;;;;;25.00;17.95;98817.50;5082292;28;20055;-49
2021/03/09 02:52:01;;;;;;;23.80;13.63;;;;;;;24.97;17.62;98813.50;5067725;28;20476;-49
2021/03/09 02:54:27;;;;;;;21.50;12.70;;;;;;;24.96;18.12;98811.06;5087597;28;20528;-50
2021/03/09 02:56:53;;;;;;;21.63;12.98;;;;;;;24.95;17.79;98815.88;5093364;28;20039;-48
2021/03/09 02:59:20;;;;;;;23.08;13.45;;;;;;;24.94;18.00;98819.88;5091889;28;20036;-47
2021/03/09 03:01:48;;;;;;;20.80;12.68;;;;;;;24.95;17.90;98826.28;5085289;28;20070;-49
2021/03/09 03:04:17;;;;;;;23.23;13.32;;;;;;;24.96;17.89;98825.09;5082554;28;20081;-47
2021/03/09 03:06:45;;;;;;;23.83;12.95;;;;;;;24.95;18.01;98821.50;5081837;28;20032;-48
2021/03/09 03:09:13;;;;;;;21.92;12.30;;;;;;;24.96;18.11;98816.66;5085464;28;20029;-50
2021/03/09 03:11:41;;;;;;;23.00;13.18;;;;;;;24.97;17.63;98824.72;5087576;28;20102;-50
2021/03/09 03:14:07;;;;;;;21.13;12.25;;;;;;;24.98;17.89;98828.31;5087747;28;20016;-48
2021/03/09 03:16:36;;;;;;;22.75;12.23;;;;;;;24.98;17.81;98825.50;5086749;28;20480;-51
2021/03/09 03:19:04;;;;;;;21.27;12.45;;;;;;;24.99;17.83;98832.72;5085452;28;20020;-48
2021/03/09 03:21:31;;;;;;;24.88;13.63;;;;;;;24.99;17.78;98823.53;5080246;28;20031;-49
2021/03/09 03:24:01;;;;;;;22.50;13.38;;;;;;;25.00;17.85;98820.31;5080436;28;20059;-47
2021/03/09 03:26:28;;;;;;;24.60;13.93;;;;;;;25.02;18.03;98823.53;5085549;28;20020;-50
2021/03/09 03:28:56;;;;;;;20.90;12.98;;;;;;;25.03;17.77;98827.19;5086254;28;20471;-49
2021/03/09 03:31:22;;;;;;;21.73;12.85;;;;;;;25.04;17.69;98828.78;5086587;28;20056;-47
2021/03/09 03:33:48;;;;;;;24.30;13.48;;;;;;;25.05;18.06;98827.59;5091616;28;20019;-46
2021/03/09 03:36:14;;;;;;;23.60;13.60;;;;;;;25.04;17.62;98828.78;5089042;28;20024;-51
2021/03/09 03:38:41;;;;;;;22.92;13.68;;;;;;;25.04;17.82;98829.59;5084755;28;20012;-51
2021/03/09 03:41:08;;;;;;;24.52;13.80;;;;;;;25.03;17.80;98827.97;5066469;28;20098;-50
2021/03/09 03:43:34;;;;;;;24.35;13.00;;;;;;;25.03;18.06;98830.78;5062234;28;20043;-52
2021/03/09 03:46:00;;;;;;;24.23;14.35;;;;;;;25.01;17.60;98833.16;5084251;28;20078;-50
2021/03/09 03:48:26;;;;;;;24.83;13.57;;;;;;;25.00;17.58;98833.56;5087557;28;20016;-53
2021/03/09 03:50:54;;;;;;;21.25;12.88;;;;;;;24.99;17.80;98834.75;5090022;28;20098;-53
2021/03/09 03:53:21;;;;;;;22.38;13.45;;;;;;;24.96;17.84;98830.69;5085672;28;20522;-51
2021/03/09 03:56:00;;;;;;;23.15;13.63;;;;;;;24.94;17.89;98836.72;5084645;28;20032;-54
2021/03/09 03:58:51;;;;;;;22.03;13.50;;;;;;;24.91;17.72;98831.03;5080647;28;20017;-54
2021/03/09 04:01:21;;;;;;;23.65;13.93;;;;;;;24.89;17.93;98823.03;5080755;28;20277;-49
2021/03/09 04:03:50;;;;;;;23.17;12.73;;;;;;;24.88;17.72;98832.63;5084315;28;20424;-51
2021/03/09 04:06:18;;;;;;;23.00;13.15;;;;;;;24.88;17.76;98827.00;5086341;28;20027;-52
2021/03/09 04:08:44;;;;;;;21.08;12.73;;;;;;;24.88;17.83;98837.41;5082682;28;20395;-50
2021/03/09 04:11:10;;;;;;;22.35;13.95;;;;;;;24.89;17.92;98839.03;5092445;28;20032;-53
2021/03/09 04:13:37;;;;;;;23.75;13.93;;;;;;;24.89;17.81;98834.25;5088293;28;20026;-53
2021/03/09 04:16:04;;;;;;;22.20;13.18;;;;;;;24.89;18.02;98837.03;5084875;28;20472;-50
2021/03/09 04:18:30;;;;;;;26.13;14.65;;;;;;;24.91;17.80;98836.66;5083144;28;20024;-53
2021/03/09 04:20:57;;;;;;;23.55;13.73;;;;;;;24.92;17.87;98832.66;5082473;28;20024;-53
2021/03/09 04:23:24;;;;;;;24.13;14.40;;;;;;;24.93;17.79;98828.66;5086360;28;20016;-51
2021/03/09 04:25:51;;;;;;;23.80;14.05;;;;;;;24.94;18.06;98831.09;5089578;28;20059;-48
2021/03/09 04:28:17;;;;;;;24.98;15.32;;;;;;;24.95;17.83;98827.09;5091543;28;20059;-48
2021/03/09 04:30:43;;;;;;;24.20;14.80;;;;;;;24.96;17.76;98823.09;5085457;28;20070;-51
2021/03/09 04:33:11;;;;;;;25.58;14.70;;;;;;;24.97;17.64;98821.09;5079843;28;20035;-50
2021/03/09 04:35:36;;;;;;;22.85;14.13;;;;;;;24.97;17.76;98821.91;5081162;28;20024;-53
2021/03/09 04:38:05;;;;;;;25.83;14.73;;;;;;;24.98;17.84;98819.91;5080284;28;20027;-50
2021/03/09 04:40:32;;;;;;;25.25;14.88;;;;;;;24.97;17.97;98827.53;5083953;28;20028;-50
2021/03/09 04:42:58;;;;;;;23.80;14.05;;;;;;;24.95;17.97;98827.09;5084108;28;20031;-47
2021/03/09 04:45:23;;;;;;;24.45;14.25;;;;;;;24.95;17.96;98824.28;5080921;28;20126;-52
2021/03/09 04:47:49;;;;;;;24.48;14.50;;;;;;;24.94;17.75;98822.69;5091499;28;20113;-51
2021/03/09 04:50:16;;;;;;;23.65;14.35;;;;;;;24.92;17.77;98825.06;5084448;28;20024;-53
2021/03/09 04:52:45;;;;;;;22.77;14.70;;;;;;;24.91;17.72;98820.63;5083081;28;20038;-51
2021/03/09 04:55:14;;;;;;;25.38;14.75;;;;;;;24.90;17.75;98819.03;5080703;28;20056;-49
2021/03/09 04:57:40;;;;;;;;;;;;;;;24.89;17.83;98819.38;5084122;28;20536;-49
2021/03/09 05:00:11;;;;;;;24.40;14.20;;;;;;;24.88;17.98;98812.16;5085786;28;20381;-50
2021/03/09 05:02:37;;;;;;;23.48;14.20;;;;;;;24.86;18.00;98820.19;5089570;28;20076;-52
2021/03/09 05:05:03;;;;;;;23.50;14.13;;;;;;;24.85;17.96;98818.56;5089944;28;21702;-51
2021/03/09 05:07:29;;;;;;;24.38;14.43;;;;;;;24.85;18.02;98827.78;5091596;28;20012;-51
2021/03/09 05:09:54;;;;;;;23.15;13.85;;;;;;;24.86;18.03;98829.41;5088968;28;20028;-53
2021/03/09 05:12:20;;;;;;;24.88;14.38;;;;;;;24.87;17.97;98831.00;5088210;28;20380;-50
2021/03/09 05:14:45;;;;;;;24.80;14.07;;;;;;;24.88;18.26;98837.41;5085777;28;20492;-50
2021/03/09 05:17:11;;;;;;;22.65;14.07;;;;;;;24.88;17.96;98827.00;5086455;28;20108;-48
2021/03/09 05:19:36;;;;;;;23.05;13.85;;;;;;;24.90;18.05;98829.41;5084122;28;20027;-51
2021/03/09 05:22:01;;;;;;;25.00;13.75;;;;;;;24.90;18.12;98835.84;5087488;28;20463;-51
2021/03/09 05:24:27;;;;;;;25.70;14.48;;;;;;;24.92;18.11;98838.25;5092781;28;20028;-48
2021/03/09 05:26:54;;;;;;;26.00;14.18;;;;;;;24.93;17.94;98832.28;5095447;28;20027;-53
2021/03/09 05:29:19;;;;;;;26.63;15.80;;;;;;;24.95;18.13;98838.31;5089729;28;20027;-51
2021/03/09 05:31:44;;;;;;;25.63;15.18;;;;;;;24.96;18.17;98833.50;5092936;28;20028;-49
2021/03/09 05:34:10;;;;;;;26.27;14.93;;;;;;;24.96;17.95;98834.31;5090816;28;20016;-49
2021/03/09 05:36:35;;;;;;;27.88;16.35;;;;;;;24.96;18.35;98839.13;5091676;28;20464;-47
2021/03/09 05:39:01;;;;;;;27.25;15.82;;;;;;;24.97;17.94;98833.13;5087485;28;20025;-49
2021/03/09 05:41:26;;;;;;;32.00;17.20;;;;;;;24.97;18.00;98835.13;5081962;28;20115;-48
2021/03/09 05:43:52;;;;;;;28.65;16.73;;;;;;;24.99;18.07;98840.34;5090215;28;20046;-50
2021/03/09 05:46:18;;;;;;;31.77;17.27;;;;;;;24.99;17.98;98834.75;5091151;28;20028;-54
2021/03/09 05:48:43;;;;;;;32.75;17.58;;;;;;;24.99;18.24;98838.34;5087383;28;20426;-49
2021/03/09 05:51:10;;;;;;;36.15;18.85;;;;;;;25.01;18.03;98840.78;5086736;28;20016;-49
2021/03/09 05:53:35;;;;;;;35.67;19.17;;;;;;;25.01;18.09;98837.97;5086775;28;20078;-53
2021/03/09 05:56:04;;;;;;;31.58;18.17;;;;;;;25.03;17.88;98839.19;5082473;28;20032;-53
2021/03/09 05:58:30;;;;;;;41.17;21.60;;;;;;;25.05;17.89;98838.81;5088027;28;20073;-51
2021/03/09 06:00:56;;;;;;;39.13;21.25;;;;;;;25.05;18.06;98839.63;5080737;28;20109;-52
2021/03/09 06:03:25;;;;;;;39.35;20.83;;;;;;;25.09;17.94;98842.44;5093773;28;20465;-47
2021/03/09 06:05:50;;;;;;;42.60;23.25;;;;;;;25.10;17.91;98833.66;5094996;28;20480;-49
2021/03/09 06:08:16;;;;;;;38.08;21.38;;;;;;;25.12;18.05;98836.88;5094746;28;20020;-50
2021/03/09 06:10:41;;;;;;;41.40;22.05;;;;;;;25.14;17.98;98833.69;5088418;28;20539;-49
2021/03/09 06:13:07;;;;;;;42.75;23.25;;;;;;;25.15;17.92;98832.50;5090953;28;20021;-52
2021/03/09 06:15:52;;;;;;;45.67;23.98;;;;;;;25.18;17.88;98833.72;5097551;28;20020;-53
2021/03/09 06:18:23;;;;;;;47.25;24.83;;;;;;;25.19;18.08;98840.97;5094112;28;20481;-50
2021/03/09 06:20:49;;;;;;;51.45;27.10;;;;;;;25.20;17.76;98831.34;5091963;28;20012;-52
2021/03/09 06:23:26;;;;;;;51.65;27.17;;;;;;;25.19;17.81;98832.53;5092326;28;20386;-49
2021/03/09 06:25:51;;;;;;;57.33;29.27;;;;;;;25.20;17.88;98837.75;5088973;28;20042;-51
2021/03/09 06:28:29;;;;;;;57.03;28.73;;;;;;;25.20;17.93;98843.38;5090972;28;20136;-51
2021/03/09 06:30:55;;;;;;;60.83;30.55;;;;;;;25.19;17.79;98847.38;5081902;28;20099;-52
2021/03/09 06:33:29;;;;;;;60.50;30.83;;;;;;;25.19;18.12;98847.38;5088902;28;20099;-46
2021/03/09 06:35:57;;;;;;;63.35;32.58;;;;;;;25.18;18.04;98848.56;5089928;28;20497;-48
2021/03/09 06:38:24;;;;;;;62.65;31.02;;;;;;;25.17;17.85;98848.97;5090601;28;20070;-51
2021/03/09 06:41:18;;;;;;;61.72;31.67;;;;;;;25.17;17.87;98863.00;5079925;28;20454;-48
2021/03/09 06:43:58;;;;;;;69.18;35.22;;;;;;;25.16;17.88;98867.00;5096223;28;20111;-57
2021/03/09 06:46:24;;;;;;;64.78;33.25;;;;;;;25.16;17.90;98856.56;5092508;28;20044;-51
2021/03/09 06:48:52;;;;;;;71.68;34.28;;;;;;;25.17;18.02;98863.00;5088411;28;20020;-49
2021/03/09 06:51:32;;;;;;;66.82;34.38;;;;;;;25.19;17.69;98869.03;5092847;28;20695;-44
2021/03/09 06:54:06;;;;;;;80.30;41.58;;;;;;;25.16;17.87;98858.56;5089071;28;20365;-49
2021/03/09 06:56:34;;;;;;;88.90;44.60;;;;;;;25.09;17.87;98870.50;5086828;28;20028;-48
2021/03/09 06:59:30;;;;;;;100.70;49.53;;;;;;;25.01;17.99;98868.84;5092504;28;20035;-49
2021/03/09 07:02:13;;;;;;;96.63;48.05;;;;;;;24.95;17.75;98871.97;5084410;28;20036;-45
2021/03/09 07:04:42;;;;;;;98.18;48.33;;;;;;;24.91;18.01;98873.94;5081888;28;20032;-46
2021/03/09 07:07:09;;;;;;;;;;;;;;;24.86;17.90;98865.88;5087240;28;20521;-45
2021/03/09 07:09:35;;;;;;;101.40;49.30;;;;;;;24.81;18.02;98866.19;5079905;28;19935;-45
2021/03/09 07:12:07;;;;;;;102.70;51.28;;;;;;;24.76;17.97;98870.16;5079166;28;20031;-45
2021/03/09 07:14:33;;;;;;;115.47;55.80;;;;;;;24.73;18.37;98870.94;5094422;28;20020;-48
2021/03/09 07:17:03;;;;;;;127.72;56.53;;;;;;;24.71;18.30;98872.44;5088777;28;20032;-44
2021/03/09 07:19:47;;;;;;;128.70;60.58;;;;;;;24.67;18.21;98873.22;5092793;28;20024;-47
2021/03/09 07:22:13;;;;;;;134.52;61.40;;;;;;;24.66;18.11;98873.59;5092109;28;20012;-46
2021/03/09 07:24:48;;;;;;;126.25;61.28;;;;;;;24.66;18.37;98882.03;5092851;28;20036;-49
2021/03/09 07:27:17;;;;;;;130.68;60.63;;;;;;;24.65;18.16;98880.41;5101953;28;20016;-45
2021/03/09 07:29:57;;;;;;;132.70;63.78;;;;;;;24.63;18.23;98878.00;5100776;28;20059;-44
2021/03/09 07:32:26;;;;;;;130.65;61.92;;;;;;;24.63;18.23;98878.00;5092586;28;20034;-45
2021/03/09 07:34:51;;;;;;;130.00;63.60;;;;;;;24.62;18.32;98876.38;5092324;28;20539;-45
2021/03/09 07:37:17;;;;;;;136.82;66.28;;;;;;;24.61;18.21;98863.53;5092242;28;20119;-48
2021/03/09 07:39:43;;;;;;;129.68;66.75;;;;;;;24.60;18.23;98870.34;5092465;28;20143;-48
2021/03/09 07:42:10;;;;;;;131.45;66.28;;;;;;;24.60;18.06;98875.13;5092278;28;20056;-48
2021/03/09 07:44:38;;;;;;;129.63;67.60;;;;;;;24.59;18.32;98865.91;5091669;28;20507;-46
2021/03/09 07:47:07;;;;;;;132.50;70.22;;;;;;;24.57;18.18;98865.50;5092633;28;20115;-48
2021/03/09 07:49:34;;;;;;;134.55;69.93;;;;;;;24.57;18.16;98873.91;5092200;28;20028;-47
2021/03/09 07:52:11;;;;;;;131.10;67.40;;;;;;;24.55;18.09;98865.06;5092484;28;20024;-50
2021/03/09 07:54:38;;;;;;;131.05;69.70;;;;;;;24.53;18.07;98861.84;5091846;28;20065;-48
2021/03/09 07:57:16;;;;;;;125.50;69.07;;;;;;;24.52;17.96;98872.22;5092109;28;20162;-47
2021/03/09 07:59:58;;;;;;;128.63;69.30;;;;;;;24.51;18.15;98861.41;5092242;28;20369;-48
2021/03/09 08:02:52;;;;;;;128.52;69.75;;;;;;;24.48;18.07;98871.38;5091760;28;20274;-45
2021/03/09 08:05:26;;;;;;;122.30;69.45;;;;;;;24.46;18.02;98864.53;5090272;28;20028;-45
2021/03/09 08:07:59;;;;;;;116.97;64.43;;;;;;;24.44;18.13;98859.31;5095234;28;20023;-49
2021/03/09 08:10:27;;;;;;;112.78;60.33;;;;;;;24.42;17.94;98866.47;5093395;28;20023;-53
2021/03/09 08:12:54;;;;;;;105.13;58.40;;;;;;;24.32;17.79;98863.16;5095086;28;20043;-50
2021/03/09 08:15:20;;;;;;;101.03;55.40;;;;;;;24.24;17.45;98861.47;5096623;28;20024;-49
2021/03/09 08:17:45;;;;;;;107.28;59.53;;;;;;;24.18;17.32;98865.78;5075570;28;20448;-46
2021/03/09 08:20:45;;;;;;;98.45;53.33;;;;;;;24.11;17.33;98855.25;5093655;28;20103;-48
2021/03/09 08:23:34;;;;;;;107.88;58.30;;;;;;;24.04;17.31;98852.38;5090387;28;20028;-49
2021/03/09 08:26:08;;;;;;;106.60;55.88;;;;;;;24.01;17.32;98858.72;5091376;28;20032;-50
2021/03/09 08:28:35;;;;;;;101.30;54.38;;;;;;;23.96;17.22;98859.81;5091862;28;20032;-46
2021/03/09 08:31:10;;;;;;;94.80;49.63;;;;;;;23.90;17.13;98859.34;5091922;28;20115;-48
2021/03/09 08:33:45;;;;;;;83.35;44.20;;;;;;;23.87;16.94;98860.09;5091074;28;20031;-51
2021/03/09 08:36:19;;;;;;;75.10;41.30;;;;;;;23.85;16.84;98859.66;5088405;28;20403;-48
2021/03/09 08:39:15;;;;;;;64.25;36.88;;;;;;;23.83;16.56;98858.41;5091464;28;20528;-47
2021/03/09 08:41:41;;;;;;;69.32;37.63;;;;;;;23.77;16.26;98850.34;5065626;28;20112;-52
2021/03/09 08:44:19;;;;;;;58.20;32.05;;;;;;;23.73;16.21;98854.25;5087957;28;20028;-47
2021/03/09 08:46:50;;;;;;;52.55;29.35;;;;;;;23.70;15.96;98850.22;5087538;28;20042;-52
2021/03/09 08:52:02;;;;;;;53.38;27.27;;;;;;;23.66;15.86;98857.75;5094948;28;20039;-53
2021/03/09 08:54:29;;;;;;;88.07;50.35;;;;;;;23.67;15.55;98850.16;5109542;28;20157;-54
2021/03/09 08:56:56;;;;;;;85.50;46.85;;;;;;;23.64;15.52;98857.31;5107704;28;20480;-57
2021/03/09 08:59:30;;;;;;;81.97;50.47;;;;;;;23.59;15.60;98854.81;5089013;28;20027;-58
2021/03/09 09:02:17;;;;;;;70.15;42.53;;;;;;;23.51;15.61;98848.31;5091298;28;20114;-61
2021/03/09 09:04:52;;;;;;;62.63;37.38;;;;;;;23.46;15.65;98846.59;5089826;28;20036;-61
2021/03/09 09:07:25;;;;;;;56.35;33.40;;;;;;;23.42;15.59;98844.94;5091447;28;20020;-61
2021/03/09 09:09:54;;;;;;;63.08;34.70;;;;;;;23.37;15.39;98842.44;5091140;28;20028;-61
2021/03/09 09:12:29;;;;;;;62.38;34.13;;;;;;;23.32;15.39;98843.59;5088484;28;20032;-62
2021/03/09 09:15:22;;;;;;;66.22;35.17;;;;;;;23.27;15.56;98841.09;5091106;28;20103;-61
2021/03/09 09:17:54;;;;;;;77.75;36.28;;;;;;;23.25;15.63;98844.25;5091081;28;20038;-63
2021/03/09 09:20:19;;;;;;;55.33;31.75;;;;;;;23.26;15.54;98845.88;5091013;28;20023;-60
2021/03/09 09:22:45;;;;;;;61.60;30.38;;;;;;;23.24;15.41;98853.03;5091232;28;20556;-61
2021/03/09 09:25:13;;;;;;;56.45;27.50;;;;;;;23.19;15.37;98846.53;5090673;28;20032;-60
2021/03/09 09:27:38;;;;;;;47.35;25.52;;;;;;;23.18;15.35;98849.72;5091025;28;20106;-60
2021/03/09 09:30:04;;;;;;;45.33;22.77;;;;;;;23.14;15.17;98846.81;5090979;28;20123;-58
2021/03/09 09:33:03;;;;;;;52.33;25.30;;;;;;;23.10;15.11;98843.16;5090975;28;20552;-54
2021/03/09 09:35:29;;;;;;;49.22;23.90;;;;;;;23.07;14.96;98843.09;5090727;28;20519;-70
2021/03/09 09:38:03;;;;;;;35.95;20.40;;;;;;;23.02;14.82;98831.03;5090936;28;20499;-63
2021/03/09 09:40:32;;;;;;;46.83;27.17;;;;;;;22.94;14.54;98839.66;5090828;28;20468;-62
2021/03/09 09:43:02;;;;;;;56.45;31.05;;;;;;;22.86;14.88;98842.31;5090880;28;20488;-63
2021/03/09 09:45:30;;;;;;;49.35;27.45;;;;;;;22.83;14.89;98850.63;5093115;28;20119;-62
2021/03/09 09:47:57;;;;;;;54.05;27.38;;;;;;;22.78;14.94;98843.34;5094670;28;20047;-63
2021/03/09 09:50:23;;;;;;;52.33;26.88;;;;;;;22.74;14.90;98845.28;5094683;28;20024;-63
2021/03/09 09:52:56;;;;;;;46.38;24.80;;;;;;;22.68;14.69;98836.38;5094447;28;20024;-63
2021/03/09 09:55:23;;;;;;;47.20;25.58;;;;;;;22.67;14.90;98843.16;5093930;28;20051;-61
2021/03/09 09:57:54;;;;;;;44.97;24.92;;;;;;;22.67;15.09;98850.72;5094546;28;20864;-61
2021/03/09 10:00:22;;;;;;;47.83;24.70;;;;;;;22.66;15.06;98841.53;5094214;28;20062;-61
2021/03/09 10:03:08;;;;;;;51.03;24.27;;;;;;;22.68;15.11;98849.53;5094202;28;20509;-61
2021/03/09 10:05:34;;;;;;;43.92;21.65;;;;;;;22.68;15.01;98843.94;5093681;28;20114;-59
2021/03/09 10:07:59;;;;;;;41.95;20.63;;;;;;;22.65;15.03;98830.69;5094478;28;20103;-59
2021/03/09 10:10:25;;;;;;;42.90;22.05;;;;;;;22.63;14.81;98835.84;5094296;28;20032;-59
2021/03/09 10:12:50;;;;;;;40.20;20.20;;;;;;;22.60;15.02;98824.25;5094507;28;20039;-59
2021/03/09 10:15:16;;;;;;;38.17;19.20;;;;;;;22.58;14.85;98826.63;5093952;28;20507;-60
2021/03/09 10:17:42;;;;;;;32.92;17.50;;;;;;;22.54;14.71;98822.09;5094124;28;20077;-59
2021/03/09 10:20:19;;;;;;;29.98;16.35;;;;;;;22.46;14.74;98829.53;5094141;28;20376;-55
2021/03/09 10:22:45;;;;;;;29.42;15.63;;;;;;;22.35;14.41;98823.72;5094127;28;20030;-55
2021/03/09 10:25:13;;;;;;;30.52;16.73;;;;;;;22.28;14.38;98824.34;5093904;28;20032;-52
2021/03/09 10:27:39;;;;;;;33.78;18.50;;;;;;;22.27;14.49;98830.31;5094131;28;20111;-54
2021/03/09 10:30:05;;;;;;;42.38;20.92;;;;;;;22.24;14.99;98825.47;5094241;28;20012;-53
2021/03/09 10:32:31;;;;;;;41.78;21.27;;;;;;;22.16;14.83;98822.50;5093913;28;20028;-54
2021/03/09 10:34:56;;;;;;;40.78;20.95;;;;;;;22.11;14.77;98822.00;5093342;28;20512;-53
2021/03/09 10:37:36;;;;;;;43.20;22.40;;;;;;;22.07;14.88;98819.09;5092465;28;20027;-55
2021/03/09 10:40:07;;;;;;;51.72;25.67;;;;;;;22.00;14.53;98807.78;5089707;28;20399;-53
2021/03/09 10:42:36;;;;;;;50.83;26.83;;;;;;;21.92;14.72;98819.97;5107041;28;20491;-55
2021/03/09 10:45:20;;;;;;;;;;;;;;;21.87;14.69;98823.84;5114391;28;20043;-53
2021/03/09 10:47:51;;;;;;;42.08;23.02;;;;;;;21.83;14.93;98820.16;5113826;28;19923;-54
2021/03/09 10:50:20;;;;;;;42.83;22.70;;;;;;;21.81;15.05;98814.13;5113928;28;20104;-53
2021/03/09 10:52:45;;;;;;;41.22;22.73;;;;;;;21.79;15.11;98814.50;5113662;28;20383;-53
2021/03/09 10:55:11;;;;;;;41.17;22.45;;;;;;;21.79;15.14;98816.50;5113038;28;20027;-55
2021/03/09 10:57:37;;;;;;;35.22;19.92;;;;;;;21.74;15.04;98811.19;5113217;28;20039;-53
2021/03/09 11:00:07;;;;;;;35.97;18.83;;;;;;;21.68;15.06;98813.41;5113656;28;20027;-53
2021/03/09 11:02:33;;;;;;;35.58;18.67;;;;;;;21.65;15.04;98809.38;5113702;28;20028;-54
2021/03/09 11:04:58;;;;;;;40.45;21.42;;;;;;;21.61;15.02;98797.28;5113158;28;20037;-54
2021/03/09 11:07:24;;;;;;;32.92;18.80;;;;;;;21.59;15.17;98796.84;5113388;28;20084;-55
2021/03/09 11:09:49;;;;;;;32.17;17.45;;;;;;;21.57;15.05;98796.41;5113709;28;20034;-51
2021/03/09 11:12:14;;;;;;;30.58;16.42;;;;;;;21.53;15.46;98798.28;5113559;28;20024;-52
2021/03/09 11:14:40;;;;;;;27.13;15.13;;;;;;;21.51;15.55;98797.84;5112955;28;20027;-49
2021/03/09 11:17:05;;;;;;;25.50;14.23;;;;;;;21.53;15.92;98798.28;5113257;28;20115;-58
2021/03/09 11:19:30;;;;;;;27.42;14.98;;;;;;;21.48;16.27;98788.22;5113424;28;20102;-57
2021/03/09 11:21:56;;;;;;;27.75;14.32;;;;;;;21.40;15.93;98790.00;5113388;28;20452;-54
2021/03/09 11:24:21;;;;;;;25.02;14.52;;;;;;;21.33;16.08;98783.47;5113368;28;20096;-57
2021/03/09 11:26:47;;;;;;;23.23;13.45;;;;;;;21.28;16.06;98781.75;5112860;28;20038;-53
2021/03/09 11:29:13;;;;;;;25.75;14.95;;;;;;;21.27;16.03;98782.94;5113104;28;20535;-57